Time;durP1;ratioP1;P1;durP2;ratioP2;P2;SDS_P1;SDS_P2;PMS_P1;PMS_P2;Temp;Humidity;BMP_temperature;BMP_pressure;BME280_temperature;BME280_humidity;BME280_pressure;Samples;Min_cycle;Max_cycle;Signal;HPM_P1;HPM_P2
2023/01/02 00:00:48;;;;;;;19.13;5.82;;;;;;;11.27;60.67;99817.41;10346256;28;20062;-60
2023/01/02 00:05:50;;;;;;;12.63;4.80;;;;;;;11.43;60.04;99823.31;10344553;28;20078;-60
2023/01/02 00:10:52;;;;;;;16.65;3.88;;;;;;;11.46;59.86;99811.81;10343900;28;20414;-60
2023/01/02 00:15:53;;;;;;;10.77;3.63;;;;;;;11.60;59.41;99803.88;10341372;28;20045;-60
2023/01/02 00:20:55;;;;;;;11.93;3.63;;;;;;;11.74;58.71;99791.56;10343809;28;20088;-59
2023/01/02 00:25:58;;;;;;;10.98;3.55;;;;;;;11.85;58.49;99772.47;10343127;28;20053;-60
2023/01/02 00:31:10;;;;;;;11.93;3.75;;;;;;;11.83;58.37;99779.59;10339169;28;20787;-60
2023/01/02 00:36:12;;;;;;;12.50;3.45;;;;;;;11.77;58.58;99780.84;10343520;28;20085;-60
2023/01/02 00:41:14;;;;;;;14.23;4.28;;;;;;;11.71;58.60;99783.03;10343993;28;20054;-60
2023/01/02 00:46:17;;;;;;;11.65;4.45;;;;;;;11.63;58.89;99782.72;10342032;28;20065;-60
2023/01/02 00:51:19;;;;;;;12.63;4.78;;;;;;;11.52;58.79;99790.47;10343063;28;20050;-60
2023/01/02 00:56:21;;;;;;;16.95;5.32;;;;;;;11.51;59.02;99788.75;10342365;28;20520;-60
2023/01/02 01:01:22;;;;;;;15.45;4.82;;;;;;;11.48;59.18;99783.75;10344448;28;20046;-60
2023/01/02 01:06:24;;;;;;;13.38;3.88;;;;;;;11.50;58.99;99772.19;10342792;28;20506;-60
2023/01/02 01:11:26;;;;;;;13.23;4.22;;;;;;;11.57;58.83;99775.25;10344403;28;20068;-60
2023/01/02 01:16:27;;;;;;;10.43;3.70;;;;;;;11.61;58.97;99769.72;10342340;28;20418;-60
2023/01/02 01:21:29;;;;;;;11.70;4.22;;;;;;;11.65;59.01;99760.72;10343006;28;20133;-60
2023/01/02 01:26:31;;;;;;;9.75;4.05;;;;;;;11.73;58.49;99755.81;10341718;28;20617;-60
2023/01/02 01:31:32;;;;;;;10.02;3.40;;;;;;;11.75;58.34;99758.31;10342370;28;20046;-60
2023/01/02 01:36:35;;;;;;;12.93;5.40;;;;;;;11.68;58.80;99764.94;10342743;28;20071;-60
2023/01/02 01:41:36;;;;;;;12.50;4.20;;;;;;;11.64;58.58;99766.88;10342135;28;20845;-60
2023/01/02 01:46:43;;;;;;;10.57;3.53;;;;;;;11.66;58.72;99764.19;10341708;28;20508;-60
2023/01/02 01:52:08;;;;;;;14.13;3.50;;;;;;;11.69;58.03;99770.06;10345949;28;20072;-60
2023/01/02 01:57:38;;;;;;;13.60;3.58;;;;;;;11.72;57.63;99766.41;10348964;28;20061;-60
2023/01/02 02:02:43;;;;;;;14.80;3.45;;;;;;;11.90;57.57;99760.75;10350739;28;20084;-60
2023/01/02 02:07:58;;;;;;;11.48;3.53;;;;;;;12.02;56.91;99759.94;10350194;28;20133;-60
2023/01/02 02:13:00;;;;;;;11.43;2.80;;;;;;;12.11;56.75;99769.75;10348556;28;20133;-60
2023/01/02 02:18:12;;;;;;;12.40;3.55;;;;;;;12.19;56.09;99771.88;10348322;28;20050;-60
2023/01/02 02:23:30;;;;;;;12.45;3.25;;;;;;;12.29;55.88;99767.72;10348231;28;20042;-60
2023/01/02 02:28:51;;;;;;;13.05;2.92;;;;;;;12.26;55.32;99769.66;10348344;28;20049;-60
2023/01/02 02:34:08;;;;;;;7.97;2.90;;;;;;;12.28;55.17;99762.50;10348292;28;20053;-60
2023/01/02 02:39:29;;;;;;;11.30;3.25;;;;;;;12.25;55.16;99762.75;10347974;28;20053;-60
2023/01/02 02:44:46;;;;;;;10.35;3.00;;;;;;;12.24;55.22;99748.78;10348658;28;20080;-60
2023/01/02 02:50:11;;;;;;;9.65;3.22;;;;;;;12.10;55.22;99748.91;10349017;28;20415;-60
2023/01/02 02:55:24;;;;;;;10.43;3.25;;;;;;;11.95;55.03;99747.31;10348281;28;20061;-60
2023/01/02 03:00:26;;;;;;;13.38;3.13;;;;;;;11.89;55.64;99732.88;10346557;28;20570;-60
2023/01/02 03:05:36;;;;;;;11.57;2.92;;;;;;;11.91;55.17;99719.66;10351906;28;20053;-60
2023/01/02 03:10:48;;;;;;;14.63;3.20;;;;;;;11.88;55.79;99728.59;10354248;28;20149;-60
2023/01/02 03:16:08;;;;;;;11.10;3.28;;;;;;;11.78;55.79;99724.06;10349167;28;20128;-60
2023/01/02 03:21:15;;;;;;;10.48;3.25;;;;;;;11.76;55.73;99733.81;10353616;28;20537;-61
2023/01/02 03:26:22;;;;;;;12.80;3.80;;;;;;;11.72;56.31;99734.97;10353721;28;20081;-60
2023/01/02 03:31:26;;;;;;;17.17;3.55;;;;;;;11.74;56.25;99727.84;10353685;28;20533;-60
2023/01/02 03:36:31;;;;;;;11.30;3.40;;;;;;;11.87;55.88;99739.16;10351446;28;20038;-60
2023/01/02 03:41:39;;;;;;;9.13;3.08;;;;;;;11.78;56.08;99735.38;10354624;28;20056;-60
2023/01/02 03:46:49;;;;;;;17.70;3.47;;;;;;;11.61;56.05;99753.16;10353817;28;20461;-60
2023/01/02 03:51:50;;;;;;;14.07;3.43;;;;;;;11.47;55.86;99759.31;10352217;28;20056;-60
2023/01/02 03:57:07;;;;;;;7.55;2.70;;;;;;;11.50;55.63;99747.81;10353567;28;20415;-60
2023/01/02 04:02:15;;;;;;;13.15;3.42;;;;;;;11.45;55.81;99755.97;10349156;28;20049;-60
2023/01/02 04:07:48;;;;;;;18.40;3.45;;;;;;;11.30;55.84;99751.72;10346819;28;20561;-60
2023/01/02 04:12:52;;;;;;;15.68;3.05;;;;;;;11.25;55.73;99762.50;10341363;28;20046;-60
2023/01/02 04:17:59;;;;;;;16.15;2.85;;;;;;;11.37;55.57;99760.88;10344861;28;20072;-60
2023/01/02 04:23:05;;;;;;;18.67;3.45;;;;;;;11.58;54.83;99756.81;10344615;28;20418;-60
2023/01/02 04:28:16;;;;;;;15.55;3.55;;;;;;;11.60;55.12;99767.22;10342911;28;20042;-60
2023/01/02 04:33:21;;;;;;;13.57;2.80;;;;;;;11.56;55.09;99770.97;10343507;28;20046;-60
2023/01/02 04:38:22;;;;;;;10.77;3.15;;;;;;;11.50;55.42;99764.34;10344214;28;20045;-60
2023/01/02 04:43:24;;;;;;;13.85;3.00;;;;;;;11.45;55.25;99771.69;10345055;28;20046;-60
2023/01/02 04:48:26;;;;;;;14.93;3.35;;;;;;;11.40;55.70;99775.56;10342435;28;20521;-60
2023/01/02 04:53:27;;;;;;;18.05;2.97;;;;;;;11.39;55.11;99779.09;10344922;28;20057;-60
2023/01/02 04:58:29;;;;;;;12.02;3.03;;;;;;;11.34;55.41;99784.63;10341894;28;20697;-60
2023/01/02 05:03:30;;;;;;;14.25;3.28;;;;;;;11.27;55.55;99778.94;10343117;28;20327;-60
2023/01/02 05:08:32;;;;;;;15.40;3.22;;;;;;;11.32;55.31;99776.88;10341001;28;20500;-60
2023/01/02 05:13:34;;;;;;;12.18;3.03;;;;;;;11.46;54.73;99780.38;10341976;28;20046;-60
2023/01/02 05:18:36;;;;;;;11.25;3.42;;;;;;;11.59;54.09;99782.09;10343421;28;20053;-60
2023/01/02 05:23:49;;;;;;;15.05;3.60;;;;;;;11.75;53.69;99787.97;10342388;28;20061;-60
2023/01/02 05:28:52;;;;;;;13.70;3.10;;;;;;;11.83;53.47;99787.47;10340516;28;20045;-60
2023/01/02 05:33:56;;;;;;;11.73;3.05;;;;;;;11.92;52.91;99800.81;10342837;28;20058;-60
2023/01/02 05:38:58;;;;;;;12.90;3.40;;;;;;;12.01;53.15;99794.06;10342556;28;20213;-60
2023/01/02 05:43:59;;;;;;;18.80;3.60;;;;;;;12.02;52.61;99790.53;10340132;28;20052;-60
2023/01/02 05:49:08;;;;;;;13.35;3.58;;;;;;;12.04;52.41;99784.25;10342552;28;20380;-60
2023/01/02 05:54:09;;;;;;;16.23;3.15;;;;;;;11.95;52.37;99784.84;10341768;28;20135;-60
2023/01/02 05:59:13;;;;;;;12.77;2.90;;;;;;;12.01;52.40;99778.34;10340108;28;20802;-60
2023/01/02 06:04:15;;;;;;;14.18;3.40;;;;;;;11.99;52.18;99781.09;10342046;28;20050;-60
2023/01/02 06:09:20;;;;;;;14.60;3.13;;;;;;;12.04;52.20;99780.78;10339745;28;20046;-60
2023/01/02 06:14:22;;;;;;;13.07;3.00;;;;;;;12.03;51.43;99781.72;10339333;28;20042;-60
2023/01/02 06:19:24;;;;;;;15.13;3.20;;;;;;;12.08;51.82;99790.97;10342341;28;20057;-60
2023/01/02 06:24:26;;;;;;;11.88;3.13;;;;;;;12.11;51.73;99800.38;10342052;28;20053;-60
2023/01/02 06:29:28;;;;;;;14.60;3.15;;;;;;;12.24;50.89;99803.00;10342036;28;20042;-60
2023/01/02 06:34:29;;;;;;;13.13;3.08;;;;;;;12.23;50.56;99806.59;10341034;28;20206;-60
2023/01/02 06:39:32;;;;;;;13.70;2.90;;;;;;;12.33;50.06;99820.78;10345935;28;20064;-60
2023/01/02 06:44:33;;;;;;;14.95;3.00;;;;;;;12.39;49.52;99805.47;10347875;28;20057;-60
2023/01/02 06:49:35;;;;;;;13.80;3.63;;;;;;;12.49;49.49;99801.25;10350140;28;20136;-59
2023/01/02 06:54:36;;;;;;;11.93;3.40;;;;;;;12.55;49.28;99800.84;10348503;28;20050;-60
2023/01/02 06:59:38;;;;;;;14.18;3.10;;;;;;;12.56;49.19;99781.50;10347514;28;20061;-60
2023/01/02 07:04:40;;;;;;;15.25;3.50;;;;;;;12.58;49.48;99774.38;10348744;28;20057;-60
2023/01/02 07:09:41;;;;;;;16.70;3.33;;;;;;;12.48;49.61;99778.59;10347141;28;20521;-60
2023/01/02 07:14:43;;;;;;;15.57;2.97;;;;;;;12.42;49.97;99778.16;10348180;28;20056;-60
2023/01/02 07:19:45;;;;;;;14.77;3.53;;;;;;;12.36;50.00;99787.31;10347765;28;20054;-61
2023/01/02 07:24:54;;;;;;;14.93;3.50;;;;;;;12.33;50.14;99800.66;10346009;28;20093;-60
2023/01/02 07:29:55;;;;;;;9.88;2.83;;;;;;;12.29;50.61;99799.19;10347297;28;20076;-60
2023/01/02 07:34:57;;;;;;;16.17;2.85;;;;;;;12.26;50.69;99807.22;10348179;28;20365;-60
2023/01/02 07:39:59;;;;;;;14.15;3.33;;;;;;;12.25;50.20;99808.16;10345281;28;20062;-60
2023/01/02 07:45:00;;;;;;;12.55;3.25;;;;;;;12.26;50.42;99804.59;10345607;28;20038;-60
2023/01/02 07:50:02;;;;;;;14.48;3.00;;;;;;;12.21;50.68;99817.19;10346936;28;20116;-60
2023/01/02 07:55:04;;;;;;;15.20;3.10;;;;;;;12.21;50.43;99838.16;10344682;28;20286;-60
2023/01/02 08:00:06;;;;;;;14.05;3.22;;;;;;;12.24;50.20;99843.19;10344432;28;20080;-60
2023/01/02 08:05:09;;;;;;;19.13;3.00;;;;;;;12.32;50.36;99838.28;10339890;28;20689;-60
2023/01/02 08:10:11;;;;;;;16.27;3.30;;;;;;;12.32;50.25;99856.66;10341656;28;20041;-61
2023/01/02 08:15:13;;;;;;;16.63;3.17;;;;;;;12.32;50.19;99861.88;10338046;28;20109;-61
2023/01/02 08:20:15;;;;;;;16.52;3.33;;;;;;;12.41;50.05;99865.69;10340727;28;20053;-60
2023/01/02 08:25:17;;;;;;;18.17;3.35;;;;;;;12.45;49.96;99857.50;10341484;28;20523;-60
2023/01/02 08:30:19;;;;;;;14.80;3.22;;;;;;;12.43;49.95;99867.25;10342654;28;20057;-60
2023/01/02 08:35:21;;;;;;;15.25;3.40;;;;;;;12.45;50.32;99883.72;10337946;28;20058;-60
2023/01/02 08:40:39;;;;;;;13.85;2.92;;;;;;;12.44;50.04;99895.16;10342648;28;20431;-61
2023/01/02 08:45:40;;;;;;;19.38;3.72;;;;;;;12.52;49.91;99900.72;10336432;28;20049;-61
2023/01/02 08:50:42;;;;;;;10.38;3.10;;;;;;;12.63;49.51;99903.47;10336710;28;20045;-61
2023/01/02 08:55:44;;;;;;;13.85;3.35;;;;;;;12.72;49.87;99902.81;10338001;28;20049;-60
2023/01/02 09:00:45;;;;;;;21.25;3.28;;;;;;;12.79;49.62;99918.97;10341855;28;20215;-60
2023/01/02 09:05:47;;;;;;;13.30;3.30;;;;;;;12.72;49.69;99923.81;10338125;28;20049;-60
2023/01/02 09:10:49;;;;;;;12.02;2.90;;;;;;;12.69;49.80;99931.91;10340765;28;20049;-60
2023/01/02 09:15:51;;;;;;;14.55;3.60;;;;;;;12.71;49.86;99934.41;10339265;28;20285;-61
2023/01/02 09:20:53;;;;;;;21.95;3.60;;;;;;;12.73;50.47;99933.38;10340194;28;20508;-61
2023/01/02 09:26:02;;;;;;;11.52;3.33;;;;;;;12.63;50.97;99942.81;10337705;28;20247;-60
2023/01/02 09:31:10;;;;;;;16.08;2.90;;;;;;;12.65;51.48;99943.53;10342630;28;20044;-61
2023/01/02 09:36:16;;;;;;;10.40;2.97;;;;;;;12.48;51.50;99954.31;10337613;28;20056;-60
2023/01/02 09:41:20;;;;;;;17.00;3.28;;;;;;;12.50;51.54;99960.31;10339463;28;20210;-61
2023/01/02 09:46:38;;;;;;;15.18;3.08;;;;;;;12.51;51.38;99972.50;10337795;28;20089;-60
2023/01/02 09:51:42;;;;;;;13.35;3.40;;;;;;;12.62;51.55;99975.22;10336319;28;20057;-61
2023/01/02 09:56:49;;;;;;;14.73;3.30;;;;;;;12.60;51.79;99984.16;10338887;28;20042;-61
2023/01/02 10:02:05;;;;;;;14.07;3.17;;;;;;;12.58;52.14;99992.13;10340052;28;20053;-60
2023/01/02 10:07:13;;;;;;;13.50;3.15;;;;;;;12.63;51.82;99987.41;10336259;28;20411;-60
2023/01/02 10:12:28;;;;;;;17.95;3.50;;;;;;;12.48;52.10;99979.72;10341023;28;20046;-61
2023/01/02 10:17:38;;;;;;;15.90;3.47;;;;;;;12.48;52.39;99991.06;10342988;28;20126;-60
2023/01/02 10:22:45;;;;;;;14.05;3.50;;;;;;;12.53;52.46;99991.59;10346085;28;20049;-60
2023/01/02 10:28:01;;;;;;;19.38;3.10;;;;;;;12.35;52.80;99987.56;10345687;28;20057;-60
2023/01/02 10:33:26;;;;;;;15.93;3.10;;;;;;;12.55;52.90;99986.25;10347066;28;20049;-60
2023/01/02 10:38:37;;;;;;;11.13;2.78;;;;;;;12.65;52.89;99975.03;10342241;28;20414;-60
2023/01/02 10:43:38;;;;;;;11.55;3.03;;;;;;;12.75;52.84;99981.34;10348531;28;20042;-60
2023/01/02 10:48:42;;;;;;;13.00;2.88;;;;;;;12.65;52.98;99982.06;10346062;28;20046;-60
2023/01/02 10:54:04;;;;;;;10.38;2.70;;;;;;;12.57;53.12;99981.72;10348304;28;20085;-60
2023/01/02 10:59:23;;;;;;;11.10;3.13;;;;;;;12.54;53.37;99974.91;10330185;28;20517;-60
2023/01/02 11:04:27;;;;;;;13.63;3.58;;;;;;;12.64;53.42;99978.59;10345773;28;20217;-60
2023/01/02 11:09:32;;;;;;;13.90;3.28;;;;;;;12.62;53.54;99974.41;10346944;28;20410;-60
2023/01/02 11:14:35;;;;;;;12.50;3.47;;;;;;;12.53;53.90;99973.25;10347830;28;20054;-60
2023/01/02 11:19:43;;;;;;;12.35;2.65;;;;;;;12.47;54.21;99986.75;10346369;28;20042;-60
2023/01/02 11:24:59;;;;;;;13.20;2.60;;;;;;;12.46;54.45;99982.44;10344268;28;20137;-60
2023/01/02 11:30:04;;;;;;;11.18;2.95;;;;;;;12.49;54.48;100000.63;10340345;28;20455;-60
2023/01/02 11:35:41;;;;;;;12.68;2.92;;;;;;;12.47;54.64;100013.00;10343333;28;20054;-60
2023/01/02 11:40:55;;;;;;;12.20;3.00;;;;;;;12.51;55.33;99998.72;10343015;28;20379;-60
2023/01/02 11:45:57;;;;;;;13.45;2.88;;;;;;;12.46;55.66;100008.69;10342437;28;20050;-60
2023/01/02 11:50:59;;;;;;;12.23;2.60;;;;;;;12.38;56.65;100007.50;10343615;28;20542;-61
2023/01/02 11:56:12;;;;;;;13.18;2.60;;;;;;;12.44;56.94;100002.69;10338497;28;20144;-61
2023/01/02 12:01:26;;;;;;;11.82;2.63;;;;;;;12.51;56.80;100006.59;10343583;28;20062;-60
2023/01/02 12:06:37;;;;;;;17.73;3.45;;;;;;;12.67;56.80;100003.78;10336877;28;20084;-61
2023/01/02 12:11:51;;;;;;;;;;;;;;;12.45;57.57;100024.53;10341228;28;20491;-61
2023/01/02 12:17:28;;;;;;;11.23;2.45;;;;;;;12.80;56.71;100018.59;10342449;28;19929;-61
2023/01/02 12:22:50;;;;;;;10.20;2.53;;;;;;;12.88;56.34;100025.97;10344411;28;20053;-60
2023/01/02 12:28:01;;;;;;;7.57;2.42;;;;;;;12.95;56.28;100028.06;10342610;28;20378;-60
2023/01/02 12:33:24;;;;;;;9.57;2.30;;;;;;;12.70;56.36;100033.28;10343421;28;20046;-59
2023/01/02 12:38:50;;;;;;;8.68;2.78;;;;;;;12.42;56.92;100043.91;10339894;28;20054;-60
2023/01/02 12:44:05;;;;;;;8.50;2.53;;;;;;;12.20;57.78;100055.88;10340548;28;20046;-60
2023/01/02 12:49:22;;;;;;;10.25;2.42;;;;;;;12.27;57.60;100059.78;10340166;28;20475;-60
2023/01/02 12:54:30;;;;;;;11.23;2.58;;;;;;;12.26;57.81;100071.19;10336987;28;20517;-60
2023/01/02 12:59:53;;;;;;;9.07;2.40;;;;;;;12.19;57.84;100081.25;10342861;28;20061;-60
2023/01/02 13:04:59;;;;;;;7.95;2.03;;;;;;;12.06;58.16;100075.97;10341489;28;20042;-60
2023/01/02 13:10:03;;;;;;;6.05;1.92;;;;;;;12.01;58.75;100079.78;10340649;28;20056;-60
2023/01/02 13:15:20;;;;;;;8.23;2.35;;;;;;;12.04;58.73;100088.31;10331722;28;20045;-60
2023/01/02 13:20:46;;;;;;;5.22;2.20;;;;;;;11.88;60.28;100094.63;10333224;28;20049;-60
2023/01/02 13:25:56;;;;;;;8.52;2.25;;;;;;;11.86;60.69;100093.88;10332746;28;20052;-61
2023/01/02 13:31:02;;;;;;;6.90;2.40;;;;;;;11.92;60.21;100088.25;10341300;28;20148;-60
2023/01/02 13:36:44;;;;;;;6.82;1.80;;;;;;;11.76;61.15;100092.75;10342239;28;20081;-60
2023/01/02 13:47:33;;;;;;;4.43;1.70;;;;;;;11.55;61.43;100107.16;10343086;28;20073;-60
2023/01/02 13:52:36;;;;;;;6.28;2.20;;;;;;;11.59;60.67;100106.03;10349200;28;20510;-60
2023/01/02 13:57:37;;;;;;;4.97;1.73;;;;;;;11.57;61.04;100113.16;10349741;28;20486;-60
2023/01/02 14:02:39;;;;;;;5.10;1.48;;;;;;;11.31;61.07;100119.97;10346358;28;20053;-60
2023/01/02 14:07:43;;;;;;;4.50;1.50;;;;;;;11.32;61.12;100130.34;10344966;28;20293;-61
2023/01/02 14:12:54;;;;;;;4.63;1.55;;;;;;;11.17;61.23;100136.47;10351767;28;20845;-61
2023/01/02 14:18:04;;;;;;;3.92;1.20;;;;;;;11.09;61.20;100151.78;10349962;28;20053;-61
2023/01/02 14:23:08;;;;;;;5.55;1.42;;;;;;;11.02;61.12;100153.06;10351352;28;20525;-62
2023/01/02 14:28:23;;;;;;;2.95;1.33;;;;;;;11.16;60.92;100160.97;10351418;28;20056;-60
2023/01/02 14:33:33;;;;;;;2.47;1.25;;;;;;;11.18;61.33;100177.44;10348581;28;20502;-60
2023/01/02 14:38:55;;;;;;;;;;;;;;;10.69;63.01;100191.59;10351184;28;20049;-60
2023/01/02 14:43:57;;;;;;;5.32;1.70;;;;;;;10.81;62.54;100196.16;10349224;28;20020;-61
2023/01/02 14:49:14;;;;;;;5.22;1.40;;;;;;;10.68;63.60;100205.63;10350512;28;20076;-60
2023/01/02 14:55:10;;;;;;;2.95;1.27;;;;;;;10.52;64.43;100217.88;10349970;28;20041;-60
2023/01/02 15:00:21;;;;;;;3.85;1.38;;;;;;;10.50;64.68;100196.19;10321320;28;20050;-60
2023/01/02 15:05:33;;;;;;;3.35;1.70;;;;;;;10.44;65.02;100199.09;10349962;28;20054;-60
2023/01/02 15:16:22;;;;;;;4.15;1.77;;;;;;;10.29;65.47;100240.03;10347576;28;20221;-60
2023/01/02 15:21:28;;;;;;;3.38;1.42;;;;;;;10.25;65.74;100241.13;10348761;28;20049;-60
2023/01/02 15:26:32;;;;;;;5.70;1.80;;;;;;;10.21;66.18;100259.66;10348772;28;20065;-60
2023/01/02 15:31:38;;;;;;;6.75;1.88;;;;;;;10.27;66.21;100267.16;10348634;28;20054;-61
2023/01/02 15:36:40;;;;;;;5.65;1.80;;;;;;;10.16;66.46;100282.56;10348168;28;20535;-60
2023/01/02 15:41:56;;;;;;;3.75;1.60;;;;;;;10.07;67.65;100281.28;10347717;28;20060;-60
2023/01/02 15:46:58;;;;;;;6.25;1.63;;;;;;;10.17;66.85;100279.03;10348018;28;20053;-60
2023/01/02 15:52:01;;;;;;;5.18;1.85;;;;;;;10.17;66.94;100279.03;10347829;28;20417;-60
2023/01/02 15:57:13;;;;;;;6.72;1.80;;;;;;;10.18;67.12;100285.94;10347592;28;20088;-60
2023/01/02 16:02:39;;;;;;;4.95;2.10;;;;;;;10.16;67.24;100306.09;10345072;28;20068;-61
2023/01/02 16:07:47;;;;;;;5.30;1.80;;;;;;;10.18;66.94;100299.00;10343617;28;20054;-61
2023/01/02 16:18:41;;;;;;;5.13;2.20;;;;;;;10.18;67.22;100278.09;10353044;28;20145;-60
2023/01/02 16:23:53;;;;;;;5.68;2.40;;;;;;;10.14;67.41;100285.25;10342097;28;20050;-61
2023/01/02 16:28:58;;;;;;;3.47;1.83;;;;;;;10.06;67.38;100299.66;10345954;28;20425;-62
2023/01/02 16:34:13;;;;;;;5.10;2.30;;;;;;;10.03;67.69;100315.50;10345494;28;20050;-61
2023/01/02 16:39:46;;;;;;;3.78;1.90;;;;;;;9.82;68.03;100337.47;10343483;28;20048;-62
2023/01/02 16:44:54;;;;;;;4.47;1.90;;;;;;;9.64;68.27;100352.28;10346128;28;20076;-62
2023/01/02 16:49:55;;;;;;;6.03;2.00;;;;;;;9.49;68.52;100364.31;10346242;28;20097;-62
2023/01/02 16:54:57;;;;;;;5.97;2.08;;;;;;;9.56;68.25;100372.69;10344796;28;20060;-62
2023/01/02 16:59:58;;;;;;;4.75;2.00;;;;;;;9.66;67.66;100381.81;10345000;28;20449;-63
2023/01/02 17:05:01;;;;;;;3.15;1.50;;;;;;;9.65;67.32;100393.13;10342761;28;20045;-63
2023/01/02 17:10:03;;;;;;;2.90;1.60;;;;;;;9.49;67.74;100413.91;10343180;28;20049;-63
2023/01/02 17:15:06;;;;;;;3.40;1.85;;;;;;;9.49;67.54;100408.69;10342520;28;20053;-63
2023/01/02 17:20:10;;;;;;;5.35;2.40;;;;;;;9.51;67.25;100400.78;10342070;28;20057;-63
2023/01/02 17:25:13;;;;;;;3.63;1.40;;;;;;;9.26;67.81;100414.13;10341639;28;20167;-62
2023/01/02 17:30:15;;;;;;;3.83;2.22;;;;;;;9.24;68.10;100436.03;10343221;28;20050;-62
2023/01/02 17:35:18;;;;;;;3.10;1.70;;;;;;;9.33;67.90;100448.63;10341291;28;20514;-61
2023/01/02 17:40:19;;;;;;;2.80;1.70;;;;;;;9.24;67.99;100449.06;10339234;28;20050;-62
2023/01/02 17:45:21;;;;;;;2.15;1.50;;;;;;;9.24;67.94;100454.28;10340467;28;20045;-62
2023/01/02 17:50:23;;;;;;;4.07;1.40;;;;;;;9.31;67.66;100466.97;10337445;28;20056;-62
2023/01/02 17:55:24;;;;;;;5.18;1.40;;;;;;;9.34;67.40;100469.44;10336268;28;20522;-61
2023/01/02 18:00:26;;;;;;;4.10;1.30;;;;;;;9.32;66.94;100479.09;10338373;28;20501;-61
2023/01/02 18:05:27;;;;;;;2.92;1.20;;;;;;;9.26;66.91;100494.22;10330059;28;20042;-61
2023/01/02 18:10:30;;;;;;;1.90;1.13;;;;;;;9.26;67.01;100496.84;10340792;28;20054;-61
2023/01/02 18:15:34;;;;;;;1.15;1.05;;;;;;;9.32;66.56;100499.16;10338037;28;20525;-61
2023/01/02 18:20:38;;;;;;;2.08;1.20;;;;;;;9.48;66.14;100514.03;10341600;28;20053;-61
2023/01/02 18:25:40;;;;;;;2.08;1.30;;;;;;;9.45;66.02;100511.56;10342035;28;20305;-61
2023/01/02 18:30:43;;;;;;;1.88;1.00;;;;;;;9.53;65.75;100524.25;10342202;28;20057;-61
2023/01/02 18:35:49;;;;;;;1.30;1.00;;;;;;;9.55;65.45;100528.50;10347885;28;20046;-61
2023/01/02 18:41:06;;;;;;;2.08;1.30;;;;;;;9.41;65.59;100549.19;10347992;28;20065;-61
2023/01/02 18:46:19;;;;;;;1.85;1.20;;;;;;;9.35;65.43;100554.69;10348663;28;20057;-61
2023/01/02 18:51:23;;;;;;;3.63;0.90;;;;;;;9.30;65.61;100571.47;10348137;28;20057;-61
2023/01/02 18:56:29;;;;;;;2.45;1.30;;;;;;;9.40;65.21;100572.75;10346720;28;20068;-61
2023/01/02 19:01:38;;;;;;;1.63;1.00;;;;;;;9.31;65.26;100587.06;10347714;28;20144;-61
2023/01/02 19:06:47;;;;;;;1.63;1.10;;;;;;;9.39;65.17;100589.31;10349072;28;20540;-61
2023/01/02 19:17:24;;;;;;;2.03;1.23;;;;;;;9.45;64.51;100604.72;10348056;28;20057;-61
2023/01/02 19:22:34;;;;;;;2.60;1.20;;;;;;;9.27;64.71;100613.34;10347999;28;20054;-61
2023/01/02 19:27:38;;;;;;;2.10;1.10;;;;;;;9.22;64.85;100613.53;10347038;28;20049;-61
2023/01/02 19:32:39;;;;;;;2.70;1.30;;;;;;;9.09;65.19;100620.22;10346217;28;20050;-61
2023/01/02 19:37:44;;;;;;;1.98;1.00;;;;;;;9.16;65.20;100639.03;10347316;28;20049;-61
2023/01/02 19:42:50;;;;;;;2.15;1.10;;;;;;;9.19;65.03;100652.84;10345009;28;20057;-61
2023/01/02 19:47:52;;;;;;;1.98;1.20;;;;;;;9.25;64.68;100652.56;10345239;28;20037;-61
2023/01/02 19:52:54;;;;;;;1.85;1.13;;;;;;;9.35;64.52;100659.09;10342683;28;20208;-61
2023/01/02 19:57:56;;;;;;;2.10;1.27;;;;;;;9.31;64.84;100664.50;10344632;28;20107;-61
2023/01/02 20:02:58;;;;;;;3.15;1.20;;;;;;;9.37;64.61;100670.31;10345877;28;20053;-61
2023/01/02 20:08:01;;;;;;;2.47;1.23;;;;;;;9.42;64.46;100680.56;10342960;28;20054;-61
2023/01/02 20:13:02;;;;;;;2.05;1.17;;;;;;;9.40;64.37;100677.19;10344779;28;20081;-61
2023/01/02 20:18:04;;;;;;;3.20;1.20;;;;;;;9.19;64.81;100688.53;10343832;28;20050;-61
2023/01/02 20:23:09;;;;;;;3.67;1.30;;;;;;;9.01;65.03;100684.94;10345163;28;20058;-62
2023/01/02 20:28:11;;;;;;;2.25;1.20;;;;;;;8.78;65.30;100691.06;10343363;28;20054;-61
2023/01/02 20:33:13;;;;;;;2.83;1.15;;;;;;;8.69;65.49;100690.56;10342725;28;20428;-61
2023/01/02 20:38:14;;;;;;;2.83;1.50;;;;;;;8.60;65.48;100707.47;10344754;28;20486;-61
2023/01/02 20:43:16;;;;;;;2.60;1.20;;;;;;;8.51;65.66;100706.94;10343474;28;20060;-61
2023/01/02 20:48:18;;;;;;;2.17;1.20;;;;;;;8.53;65.29;100712.94;10343135;28;20050;-61
2023/01/02 20:53:20;;;;;;;1.08;0.98;;;;;;;8.47;65.34;100721.88;10343530;28;20057;-61
2023/01/02 20:58:22;;;;;;;3.28;1.20;;;;;;;8.44;65.19;100732.44;10341898;28;20050;-61
2023/01/02 21:03:23;;;;;;;1.83;1.02;;;;;;;8.42;65.21;100736.00;10341203;28;20399;-62
2023/01/02 21:08:25;;;;;;;2.42;1.20;;;;;;;8.47;65.08;100741.88;10342029;28;20474;-61
2023/01/02 21:13:27;;;;;;;2.95;1.20;;;;;;;8.48;64.98;100754.88;10341802;28;20065;-61
2023/01/02 21:18:31;;;;;;;2.60;1.30;;;;;;;8.58;64.62;100764.03;10342640;28;20050;-61
2023/01/02 21:23:35;;;;;;;1.92;1.10;;;;;;;8.62;64.84;100772.56;10340652;28;20057;-61
2023/01/02 21:28:37;;;;;;;2.22;1.10;;;;;;;8.60;64.39;100770.03;10342632;28;20045;-61
2023/01/02 21:33:40;;;;;;;3.78;1.50;;;;;;;8.51;64.40;100772.13;10343476;28;20085;-60
2023/01/02 21:38:43;;;;;;;2.95;1.52;;;;;;;8.45;64.19;100769.75;10333365;28;20042;-61
2023/01/02 21:43:46;;;;;;;3.30;1.27;;;;;;;8.48;64.10;100775.72;10339685;28;20064;-61
2023/01/02 21:48:48;;;;;;;2.63;1.20;;;;;;;8.47;63.95;100792.25;10337939;28;20143;-61
2023/01/02 21:53:49;;;;;;;3.17;1.23;;;;;;;8.47;63.68;100807.03;10340372;28;20410;-61
2023/01/02 21:58:51;;;;;;;3.00;1.27;;;;;;;8.65;63.82;100798.53;10339757;28;20054;-61
2023/01/02 22:03:56;;;;;;;3.35;1.30;;;;;;;8.64;63.70;100815.94;10340440;28;20382;-61
2023/01/02 22:08:57;;;;;;;2.33;1.20;;;;;;;8.58;63.77;100823.13;10343713;28;20064;-60
2023/01/02 22:13:59;;;;;;;3.20;1.02;;;;;;;8.60;63.55;100829.16;10348429;28;20046;-61
2023/01/02 22:19:00;;;;;;;2.08;1.00;;;;;;;8.72;63.17;100823.47;10349375;28;20418;-60
2023/01/02 22:24:02;;;;;;;2.83;1.17;;;;;;;8.73;63.13;100830.38;10349128;28;20053;-60
2023/01/02 22:29:05;;;;;;;1.73;1.17;;;;;;;8.71;63.25;100835.66;10349629;28;20057;-61
2023/01/02 22:34:07;;;;;;;1.85;1.00;;;;;;;8.75;63.28;100836.41;10349227;28;20046;-61
2023/01/02 22:39:13;;;;;;;3.05;1.20;;;;;;;8.72;63.15;100849.53;10348629;28;20057;-60
2023/01/02 22:44:30;;;;;;;3.20;1.20;;;;;;;8.80;63.18;100855.31;10348498;28;20052;-61
2023/01/02 22:49:35;;;;;;;2.08;1.35;;;;;;;8.81;62.92;100863.09;10347634;28;20065;-60
2023/01/02 22:54:38;;;;;;;1.73;1.02;;;;;;;8.75;63.14;100867.69;10347050;28;20049;-61
2023/01/02 22:59:40;;;;;;;3.92;1.30;;;;;;;8.77;63.03;100865.88;10347968;28;20049;-63
2023/01/02 23:04:42;;;;;;;3.88;1.10;;;;;;;8.74;63.05;100873.81;10348195;28;20037;-61
2023/01/02 23:09:44;;;;;;;3.88;1.10;;;;;;;8.74;63.13;100881.63;10342381;28;20052;-61
2023/01/02 23:14:46;;;;;;;2.88;1.20;;;;;;;8.67;63.17;100875.78;10345542;28;20497;-61
2023/01/02 23:19:48;;;;;;;2.05;1.00;;;;;;;8.74;62.83;100882.50;10344688;28;20061;-61
2023/01/02 23:24:50;;;;;;;3.33;1.30;;;;;;;8.77;63.02;100886.75;10345390;28;20045;-61
2023/01/02 23:29:51;;;;;;;3.75;1.23;;;;;;;8.82;62.69;100890.03;10346176;28;20049;-61
2023/01/02 23:34:53;;;;;;;2.35;1.20;;;;;;;8.99;62.36;100898.09;10345773;28;20050;-61
2023/01/02 23:39:54;;;;;;;2.10;1.20;;;;;;;9.03;62.32;100898.81;10344513;28;20060;-61
2023/01/02 23:44:56;;;;;;;6.25;1.08;;;;;;;9.03;61.89;100894.44;10341285;28;20146;-60
2023/01/02 23:49:58;;;;;;;2.28;1.23;;;;;;;9.00;62.12;100902.38;10345868;28;20563;-61
2023/01/02 23:55:00;;;;;;;4.00;1.13;;;;;;;8.99;61.96;100900.69;10340378;28;20510;-61
